createdAt,value
2022-12-20T00:00:42.803Z,101627.72
2022-12-20T00:03:40.370Z,101636.44
2022-12-20T00:06:28.356Z,101639.41
2022-12-20T00:09:14.965Z,101643.81
2022-12-20T00:12:05.945Z,101646.66
2022-12-20T00:14:50.212Z,101658.53
2022-12-20T00:17:37.802Z,101642.31
2022-12-20T00:20:32.924Z,101649.75
2022-12-20T00:23:24.245Z,101651.84
2022-12-20T00:26:20.142Z,101642.75
2022-12-20T00:29:16.059Z,101632.59
2022-12-20T00:31:56.875Z,101633.66
2022-12-20T00:34:48.631Z,101630.66
2022-12-20T00:37:28.710Z,101638.47
2022-12-20T00:40:20.774Z,101635.34
2022-12-20T00:43:08.229Z,101628.44
2022-12-20T00:45:51.039Z,101623.63
2022-12-20T00:48:38.724Z,101611.06
2022-12-20T00:51:42.727Z,101605.38
2022-12-20T00:54:35.041Z,101602.63
2022-12-20T00:57:16.741Z,101601.66
2022-12-20T00:59:49.400Z,101597.97
2022-12-20T01:02:36.900Z,101596.75
2022-12-20T01:05:25.405Z,101585.09
2022-12-20T01:08:25.199Z,101582.81
2022-12-20T01:11:50.522Z,101588.03
2022-12-20T01:14:32.127Z,101588.91
2022-12-20T01:17:21.265Z,101596.00
2022-12-20T01:20:09.758Z,101587.09
2022-12-20T01:23:01.825Z,101594.47
2022-12-20T01:25:55.641Z,101588.72
2022-12-20T01:28:52.780Z,101584.25
2022-12-20T01:31:38.959Z,101578.13
2022-12-20T01:34:25.180Z,101575.56
2022-12-20T01:37:11.925Z,101560.78
2022-12-20T01:39:58.270Z,101556.91
2022-12-20T01:42:40.322Z,101560.03
2022-12-20T01:45:35.394Z,101557.09
2022-12-20T01:48:31.249Z,101553.41
2022-12-20T01:51:15.458Z,101531.91
2022-12-20T01:54:01.695Z,101515.25
2022-12-20T01:56:55.199Z,101508.81
2022-12-20T01:59:50.102Z,101503.25
2022-12-20T02:02:34.959Z,101505.69
2022-12-20T02:05:26.085Z,101497.94
2022-12-20T02:08:18.515Z,101516.09
2022-12-20T02:11:23.965Z,101511.56
2022-12-20T02:14:20.654Z,101517.25
2022-12-20T02:17:36.510Z,101516.28
2022-12-20T02:20:38.651Z,101518.19
2022-12-20T02:23:53.827Z,101502.09
2022-12-20T02:27:33.387Z,101500.59
2022-12-20T02:30:34.285Z,101501.72
2022-12-20T02:33:20.526Z,101515.66
2022-12-20T02:36:02.456Z,101502.47
2022-12-20T02:38:52.919Z,101513.91
2022-12-20T02:45:03.275Z,101511.28
2022-12-20T02:48:17.875Z,101507.09
2022-12-20T02:51:03.917Z,101507.56
2022-12-20T02:53:53.457Z,101509.09
2022-12-20T02:56:45.846Z,101495.38
2022-12-20T02:59:47.765Z,101490.34
2022-12-20T03:02:49.950Z,101475.00
2022-12-20T03:05:46.796Z,101450.41
2022-12-20T03:08:36.851Z,101450.53
2022-12-20T03:11:23.876Z,101446.81
2022-12-20T03:14:15.831Z,101454.94
2022-12-20T03:17:00.747Z,101445.28
2022-12-20T03:19:44.485Z,101451.34
2022-12-20T03:22:37.178Z,101456.09
2022-12-20T03:25:26.137Z,101455.91
2022-12-20T03:28:15.072Z,101440.41
2022-12-20T03:31:03.700Z,101457.59
2022-12-20T03:33:47.274Z,101461.00
2022-12-20T03:36:35.938Z,101467.06
2022-12-20T03:39:35.330Z,101461.78
2022-12-20T03:42:21.017Z,101475.50
2022-12-20T03:45:10.064Z,101472.91
2022-12-20T03:47:54.588Z,101461.91
2022-12-20T03:50:40.796Z,101441.81
2022-12-20T03:53:22.581Z,101440.97
2022-12-20T03:56:14.221Z,101416.56
2022-12-20T03:59:11.147Z,101434.00
2022-12-20T04:02:00.382Z,101430.59
2022-12-20T04:04:48.262Z,101431.72
2022-12-20T04:07:32.197Z,101425.50
2022-12-20T04:10:21.477Z,101425.28
2022-12-20T04:13:02.393Z,101427.75
2022-12-20T04:16:10.292Z,101436.94
2022-12-20T04:19:02.787Z,101429.19
2022-12-20T04:22:05.121Z,101433.13
2022-12-20T04:24:58.803Z,101430.84
2022-12-20T04:27:41.264Z,101426.28
2022-12-20T04:30:26.699Z,101413.50
2022-12-20T04:33:15.554Z,101402.44
2022-12-20T04:35:54.383Z,101402.81
2022-12-20T04:38:41.489Z,101390.53
2022-12-20T04:41:27.481Z,101390.66
2022-12-20T04:44:16.795Z,101396.28
2022-12-20T04:47:10.282Z,101391.50
2022-12-20T04:49:56.687Z,101402.63
2022-12-20T04:53:05.579Z,101417.44
2022-12-20T04:55:52.191Z,101417.75
2022-12-20T04:58:56.469Z,101423.94
2022-12-20T05:01:44.815Z,101414.22
2022-12-20T05:04:40.476Z,101415.66
2022-12-20T05:07:35.039Z,101422.00
2022-12-20T05:10:18.860Z,101431.75
2022-12-20T05:13:09.401Z,101429.66
2022-12-20T05:16:00.402Z,101420.47
2022-12-20T05:19:01.099Z,101429.56
2022-12-20T05:22:13.109Z,101426.03
2022-12-20T05:25:14.445Z,101439.59
2022-12-20T05:28:07.137Z,101437.91
2022-12-20T05:30:58.813Z,101435.53
2022-12-20T05:33:41.574Z,101442.94
2022-12-20T05:36:28.913Z,101437.56
2022-12-20T05:39:30.491Z,101434.06
2022-12-20T05:42:29.750Z,101421.31
2022-12-20T05:45:29.702Z,101428.31
2022-12-20T05:48:16.785Z,101422.44
2022-12-20T05:51:12.910Z,101412.03
2022-12-20T05:54:25.797Z,101401.09
2022-12-20T05:57:23.751Z,101401.09
2022-12-20T06:00:18.435Z,101406.38
2022-12-20T06:03:25.043Z,101412.53
2022-12-20T06:06:14.588Z,101393.44
2022-12-20T06:09:04.222Z,101388.41
2022-12-20T06:11:57.582Z,101390.22
2022-12-20T06:14:39.227Z,101385.56
2022-12-20T06:17:21.997Z,101382.28
2022-12-20T06:20:11.042Z,101378.19
2022-12-20T06:23:02.288Z,101374.78
2022-12-20T06:25:59.533Z,101373.56
2022-12-20T06:29:20.982Z,101378.47
2022-12-20T06:32:37.767Z,101373.28
2022-12-20T06:38:34.888Z,101345.53
2022-12-20T06:41:15.701Z,101341.94
2022-12-20T06:43:56.687Z,101344.28
2022-12-20T06:46:37.782Z,101348.78
2022-12-20T06:49:13.044Z,101346.47
2022-12-20T06:52:15.942Z,101353.28
2022-12-20T06:55:15.022Z,101337.78
2022-12-20T06:57:59.767Z,101353.38
2022-12-20T07:00:57.139Z,101350.44
2022-12-20T07:03:46.543Z,101350.47
2022-12-20T07:06:51.650Z,101349.31
2022-12-20T07:09:47.920Z,101357.16
2022-12-20T07:12:56.670Z,101356.31
2022-12-20T07:15:41.646Z,101363.94
2022-12-20T07:18:41.450Z,101371.06
2022-12-20T07:21:31.516Z,101367.69
2022-12-20T07:24:09.538Z,101364.00
2022-12-20T07:26:59.780Z,101374.41
2022-12-20T07:29:51.667Z,101378.03
2022-12-20T07:32:30.043Z,101381.19
2022-12-20T07:35:08.937Z,101374.41
2022-12-20T07:37:53.113Z,101371.97
2022-12-20T07:40:51.113Z,101367.41
2022-12-20T07:43:44.605Z,101365.19
2022-12-20T07:46:34.945Z,101371.13
2022-12-20T07:49:19.570Z,101373.56
2022-12-20T07:52:07.880Z,101369.53
2022-12-20T07:55:07.608Z,101366.91
2022-12-20T07:58:03.721Z,101359.16
2022-12-20T08:00:51.993Z,101354.59
2022-12-20T08:03:54.729Z,101359.25
2022-12-20T08:06:45.611Z,101363.59
2022-12-20T08:09:31.740Z,101353.38
2022-12-20T08:12:19.358Z,101347.00
2022-12-20T08:14:56.712Z,101350.69
2022-12-20T08:17:43.611Z,101346.59
2022-12-20T08:20:22.107Z,101343.03
2022-12-20T08:23:06.553Z,101337.09
2022-12-20T08:25:55.918Z,101325.91
2022-12-20T08:28:39.850Z,101321.63
2022-12-20T08:31:24.249Z,101321.41
2022-12-20T08:34:10.849Z,101313.75
2022-12-20T08:36:57.081Z,101327.97
2022-12-20T08:39:39.397Z,101321.19
2022-12-20T08:42:43.150Z,101306.25
2022-12-20T08:45:28.746Z,101322.03
2022-12-20T08:48:31.807Z,101329.28
2022-12-20T08:51:16.573Z,101315.50
2022-12-20T08:54:07.401Z,101318.88
2022-12-20T08:56:48.848Z,101307.94
2022-12-20T08:59:36.209Z,101308.19
2022-12-20T09:02:14.050Z,101309.19
2022-12-20T09:05:12.953Z,101314.06
2022-12-20T09:08:07.655Z,101326.16
2022-12-20T09:10:55.251Z,101332.00
2022-12-20T09:13:44.287Z,101311.06
2022-12-20T09:16:35.272Z,101303.69
2022-12-20T09:19:23.175Z,101303.44
2022-12-20T09:22:17.007Z,101304.66
2022-12-20T09:25:00.370Z,101300.44
2022-12-20T09:27:47.706Z,101289.88
2022-12-20T09:30:38.633Z,101293.03
2022-12-20T09:33:19.965Z,101291.47
2022-12-20T09:36:00.392Z,101294.97
2022-12-20T09:38:52.567Z,101286.16
2022-12-20T09:41:44.319Z,101277.28
2022-12-20T09:45:00.611Z,101269.75
2022-12-20T09:47:52.576Z,101257.28
2022-12-20T09:50:58.395Z,101262.47
2022-12-20T09:54:07.650Z,101265.94
2022-12-20T09:57:07.017Z,101265.34
2022-12-20T09:59:53.292Z,101272.97
2022-12-20T10:02:57.049Z,101251.66
2022-12-20T10:05:54.980Z,101243.28
2022-12-20T10:08:50.078Z,101247.09
2022-12-20T10:11:52.791Z,101235.56
2022-12-20T10:14:47.719Z,101233.75
2022-12-20T10:17:39.588Z,101226.00
2022-12-20T10:20:58.850Z,101219.69
2022-12-20T10:24:30.165Z,101214.34
2022-12-20T10:27:24.817Z,101204.28
2022-12-20T10:30:16.169Z,101193.13
2022-12-20T10:32:58.579Z,101194.16
2022-12-20T10:35:46.819Z,101195.88
2022-12-20T10:38:26.953Z,101197.41
2022-12-20T10:41:21.333Z,101194.19
2022-12-20T10:44:36.379Z,101197.41
2022-12-20T10:47:50.111Z,101181.53
2022-12-20T10:50:32.072Z,101190.97
2022-12-20T10:53:35.648Z,101181.34
2022-12-20T10:56:31.891Z,101169.66
2022-12-20T10:59:26.869Z,101158.72
2022-12-20T11:02:06.004Z,101151.47
2022-12-20T11:05:00.685Z,101153.78
2022-12-20T11:07:38.741Z,101161.38
2022-12-20T11:10:42.023Z,101151.41
2022-12-20T11:13:32.727Z,101146.06
2022-12-20T11:16:35.591Z,101136.16
2022-12-20T11:19:27.142Z,101142.38
2022-12-20T11:22:22.834Z,101126.38
2022-12-20T11:25:39.777Z,101115.53
2022-12-20T11:28:39.964Z,101120.94
2022-12-20T11:32:00.253Z,101109.66
2022-12-20T11:34:56.041Z,101110.88
2022-12-20T11:37:55.390Z,101103.34
2022-12-20T11:41:11.691Z,101108.03
2022-12-20T11:47:32.828Z,101103.56
2022-12-20T11:50:47.844Z,101099.09
2022-12-20T11:53:57.437Z,101090.09
2022-12-20T11:56:43.579Z,101101.63
2022-12-20T11:59:52.185Z,101085.69
2022-12-20T12:03:12.085Z,101092.19
2022-12-20T12:06:16.224Z,101094.28
2022-12-20T12:09:10.987Z,101090.50
2022-12-20T12:12:21.354Z,101089.09
2022-12-20T12:15:17.618Z,101092.34
2022-12-20T12:18:19.718Z,101084.88
2022-12-20T12:21:24.669Z,101083.56
2022-12-20T12:24:25.413Z,101080.19
2022-12-20T12:27:16.261Z,101075.56
2022-12-20T12:29:46.761Z,101084.19
2022-12-20T12:32:46.956Z,101074.06
2022-12-20T12:35:44.055Z,101066.75
2022-12-20T12:38:39.853Z,101054.69
2022-12-20T12:41:52.277Z,101049.09
2022-12-20T12:44:39.571Z,101048.09
2022-12-20T12:47:43.519Z,101047.34
2022-12-20T12:50:39.775Z,101050.28
2022-12-20T12:53:39.642Z,101042.00
2022-12-20T12:57:04.785Z,101035.91
2022-12-20T12:59:58.630Z,101045.19
2022-12-20T13:02:53.948Z,101041.56
2022-12-20T13:05:37.690Z,101050.09
2022-12-20T13:08:21.787Z,101045.34
2022-12-20T13:11:14.819Z,101044.84
2022-12-20T13:13:50.607Z,101039.69
2022-12-20T13:20:05.772Z,101043.81
2022-12-20T13:22:46.090Z,101037.69
2022-12-20T13:25:39.711Z,101035.00
2022-12-20T13:28:47.963Z,101042.22
2022-12-20T13:31:43.413Z,101035.22
2022-12-20T13:34:42.405Z,101019.34
2022-12-20T13:38:06.155Z,101021.91
2022-12-20T13:40:45.060Z,101022.03
2022-12-20T13:43:44.474Z,101024.41
2022-12-20T13:46:45.842Z,101019.00
2022-12-20T13:49:49.116Z,101008.56
2022-12-20T13:52:41.646Z,101011.59
2022-12-20T13:56:00.137Z,101008.69
2022-12-20T13:59:07.575Z,101008.91
2022-12-20T14:01:57.460Z,100997.59
2022-12-20T14:04:59.380Z,100994.47
2022-12-20T14:07:52.793Z,100976.94
2022-12-20T14:10:29.110Z,100973.06
2022-12-20T14:13:25.902Z,100973.94
2022-12-20T14:16:29.008Z,100977.06
2022-12-20T14:19:13.753Z,100968.88
2022-12-20T14:21:59.889Z,100981.44
2022-12-20T14:24:51.910Z,100969.84
2022-12-20T14:27:47.649Z,100966.75
2022-12-20T14:31:06.245Z,100972.81
2022-12-20T14:33:50.612Z,100978.38
2022-12-20T14:36:32.751Z,100976.81
2022-12-20T14:39:36.177Z,100980.81
2022-12-20T14:42:20.273Z,100969.19
2022-12-20T14:45:24.560Z,100964.38
2022-12-20T14:48:12.338Z,100973.09
2022-12-20T14:50:56.927Z,100969.22
2022-12-20T14:53:39.266Z,100974.69
2022-12-20T14:56:31.699Z,100963.56
2022-12-20T14:59:43.482Z,100955.72
2022-12-20T15:02:39.978Z,100953.41
2022-12-20T15:05:54.169Z,100952.09
2022-12-20T15:08:33.720Z,100950.28
2022-12-20T15:11:23.037Z,100954.28
2022-12-20T15:14:02.441Z,100963.22
2022-12-20T15:16:55.333Z,100951.13
2022-12-20T15:19:38.877Z,100950.16
2022-12-20T15:22:50.092Z,100938.22
2022-12-20T15:25:45.165Z,100941.09
2022-12-20T15:28:40.534Z,100949.19
2022-12-20T15:31:34.327Z,100948.34
2022-12-20T15:34:25.657Z,100958.72
2022-12-20T15:37:06.473Z,100956.69
2022-12-20T15:39:45.625Z,100964.78
2022-12-20T15:45:37.676Z,100962.38
2022-12-20T15:48:24.717Z,100972.03
2022-12-20T15:51:21.423Z,100973.84
2022-12-20T15:54:05.470Z,100964.66
2022-12-20T15:56:49.080Z,100965.41
2022-12-20T16:02:40.520Z,100953.31
2022-12-20T16:05:36.521Z,100952.22
2022-12-20T16:08:11.767Z,100938.09
2022-12-20T16:11:01.051Z,100938.44
2022-12-20T16:13:44.071Z,100953.81
2022-12-20T16:16:26.775Z,100960.06
2022-12-20T16:19:10.934Z,100951.75
2022-12-20T16:22:01.425Z,100950.16
2022-12-20T16:24:53.320Z,100950.78
2022-12-20T16:27:40.130Z,100947.03
2022-12-20T16:30:32.614Z,100936.16
2022-12-20T16:33:21.381Z,100944.38
2022-12-20T16:36:05.675Z,100939.53
2022-12-20T16:39:00.698Z,100935.69
2022-12-20T16:41:47.870Z,100929.63
2022-12-20T16:44:33.202Z,100925.88
2022-12-20T16:47:14.834Z,100931.09
2022-12-20T16:50:05.083Z,100925.03
2022-12-20T16:52:38.205Z,100915.88
2022-12-20T16:55:37.695Z,100927.69
2022-12-20T16:58:38.656Z,100928.19
2022-12-20T17:01:38.460Z,100918.28
2022-12-20T17:04:21.494Z,100907.91
2022-12-20T17:07:12.210Z,100917.09
2022-12-20T17:12:52.954Z,100915.88
2022-12-20T17:15:39.169Z,100906.34
2022-12-20T17:18:25.453Z,100907.75
2022-12-20T17:21:01.164Z,100912.72
2022-12-20T17:23:53.754Z,100907.41
2022-12-20T17:26:40.653Z,100910.06
2022-12-20T17:29:21.756Z,100912.81
2022-12-20T17:32:03.091Z,100915.63
2022-12-20T17:34:43.520Z,100913.47
2022-12-20T17:37:32.555Z,100916.59
2022-12-20T17:40:17.153Z,100926.03
2022-12-20T17:42:58.506Z,100922.97
2022-12-20T17:45:48.595Z,100918.03
2022-12-20T17:48:33.917Z,100910.91
2022-12-20T17:51:30.969Z,100911.97
2022-12-20T17:54:09.788Z,100900.41
2022-12-20T17:56:58.056Z,100893.16
2022-12-20T17:59:42.559Z,100908.00
2022-12-20T18:02:37.524Z,100895.22
2022-12-20T18:05:31.470Z,100889.44
2022-12-20T18:08:19.426Z,100891.47
2022-12-20T18:11:07.137Z,100890.53
2022-12-20T18:13:47.953Z,100893.41
2022-12-20T18:16:36.332Z,100897.28
2022-12-20T18:19:21.566Z,100891.97
2022-12-20T18:22:06.666Z,100880.38
2022-12-20T18:24:50.541Z,100875.06
2022-12-20T18:27:30.576Z,100870.09
2022-12-20T18:30:25.711Z,100863.63
2022-12-20T18:33:01.748Z,100862.63
2022-12-20T18:35:49.503Z,100855.38
2022-12-20T18:38:44.808Z,100852.75
2022-12-20T18:41:33.283Z,100848.63
2022-12-20T18:44:43.253Z,100849.34
2022-12-20T18:47:32.482Z,100840.53
2022-12-20T18:50:24.109Z,100852.97
2022-12-20T18:53:14.646Z,100854.53
2022-12-20T18:55:58.378Z,100849.34
2022-12-20T18:58:48.942Z,100846.09
2022-12-20T19:01:50.442Z,100839.31
2022-12-20T19:04:45.312Z,100851.88
2022-12-20T19:07:34.138Z,100857.91
2022-12-20T19:10:22.656Z,100849.47
2022-12-20T19:13:06.117Z,100839.81
2022-12-20T19:15:42.507Z,100841.41
2022-12-20T19:18:25.993Z,100839.78
2022-12-20T19:21:12.959Z,100833.66
2022-12-20T19:24:09.858Z,100831.97
2022-12-20T19:27:01.145Z,100825.78
2022-12-20T19:29:57.710Z,100814.44
2022-12-20T19:32:35.758Z,100812.75
2022-12-20T19:35:52.781Z,100813.50
2022-12-20T19:38:29.817Z,100809.16
2022-12-20T19:41:21.104Z,100814.72
2022-12-20T19:44:06.318Z,100802.91
2022-12-20T19:46:50.081Z,100806.75
2022-12-20T19:49:30.958Z,100811.44
2022-12-20T19:52:29.002Z,100821.34
2022-12-20T19:55:26.867Z,100823.06
2022-12-20T19:58:10.563Z,100822.69
2022-12-20T20:00:55.959Z,100836.66
2022-12-20T20:03:49.253Z,100843.19
2022-12-20T20:06:33.367Z,100841.75
2022-12-20T20:09:20.418Z,100834.16
2022-12-20T20:12:11.608Z,100833.31
2022-12-20T20:14:55.252Z,100840.34
2022-12-20T20:17:42.482Z,100837.28
2022-12-20T20:20:23.242Z,100838.75
2022-12-20T20:23:09.557Z,100842.13
2022-12-20T20:25:58.830Z,100847.19
2022-12-20T20:28:45.099Z,100840.78
2022-12-20T20:31:30.791Z,100836.31
2022-12-20T20:34:10.659Z,100828.69
2022-12-20T20:36:56.902Z,100821.94
2022-12-20T20:39:34.235Z,100818.81
2022-12-20T20:42:23.092Z,100823.63
2022-12-20T20:44:58.835Z,100827.75
2022-12-20T20:47:47.506Z,100829.06
2022-12-20T20:50:28.072Z,100821.72
2022-12-20T20:53:16.074Z,100820.41
2022-12-20T20:55:59.985Z,100817.38
2022-12-20T20:58:39.244Z,100814.94
2022-12-20T21:01:22.584Z,100815.94
2022-12-20T21:04:03.791Z,100805.56
2022-12-20T21:06:49.063Z,100793.00
2022-12-20T21:09:32.266Z,100786.81
2022-12-20T21:12:12.700Z,100778.75
2022-12-20T21:15:21.309Z,100779.56
2022-12-20T21:17:57.154Z,100779.94
2022-12-20T21:20:41.449Z,100779.84
2022-12-20T21:23:20.821Z,100780.03
2022-12-20T21:26:07.854Z,100777.84
2022-12-20T21:28:47.113Z,100770.16
2022-12-20T21:31:33.720Z,100774.84
2022-12-20T21:34:20.627Z,100777.13
2022-12-20T21:37:10.160Z,100774.38
2022-12-20T21:39:53.694Z,100759.25
2022-12-20T21:42:35.616Z,100764.22
2022-12-20T21:45:22.658Z,100767.22
2022-12-20T21:48:04.199Z,100750.41
2022-12-20T21:50:42.555Z,100748.00
2022-12-20T21:53:37.524Z,100748.22
2022-12-20T21:56:24.581Z,100740.50
2022-12-20T21:59:02.700Z,100741.22
2022-12-20T22:01:45.888Z,100737.56
2022-12-20T22:04:29.768Z,100738.28
2022-12-20T22:07:09.163Z,100738.00
2022-12-20T22:10:05.882Z,100731.03
2022-12-20T22:12:55.432Z,100733.19
2022-12-20T22:15:36.634Z,100724.53
2022-12-20T22:18:15.753Z,100711.72
2022-12-20T22:20:56.740Z,100713.63
2022-12-20T22:23:35.377Z,100701.25
2022-12-20T22:26:17.854Z,100692.28
2022-12-20T22:29:12.208Z,100687.88
2022-12-20T22:31:53.042Z,100675.25
2022-12-20T22:34:43.678Z,100683.69
2022-12-20T22:37:27.569Z,100686.97
2022-12-20T22:40:09.855Z,100682.50
2022-12-20T22:42:57.946Z,100670.94
2022-12-20T22:45:41.731Z,100668.94
2022-12-20T22:48:18.007Z,100670.66
2022-12-20T22:51:21.628Z,100660.47
2022-12-20T22:54:07.366Z,100664.38
2022-12-20T22:56:49.593Z,100658.09
2022-12-20T22:59:43.653Z,100649.84
2022-12-20T23:02:24.678Z,100651.06
2022-12-20T23:05:17.823Z,100646.78
2022-12-20T23:07:55.460Z,100642.19
2022-12-20T23:10:58.138Z,100637.47
2022-12-20T23:13:59.794Z,100637.34
2022-12-20T23:16:43.635Z,100639.72
2022-12-20T23:19:25.668Z,100631.56
2022-12-20T23:22:17.102Z,100633.78
2022-12-20T23:25:02.763Z,100622.38
2022-12-20T23:27:40.548Z,100624.03
2022-12-20T23:30:27.116Z,100620.44
2022-12-20T23:33:15.501Z,100622.38
2022-12-20T23:36:08.195Z,100619.19
2022-12-20T23:38:39.265Z,100624.84
2022-12-20T23:41:26.596Z,100614.69
2022-12-20T23:44:19.956Z,100603.13
2022-12-20T23:47:01.049Z,100609.59
2022-12-20T23:49:48.637Z,100604.41
2022-12-20T23:52:29.347Z,100601.25
2022-12-20T23:55:07.702Z,100606.41
2022-12-20T23:57:48.076Z,100601.81
